createdAt,value
2019-04-20T00:00:54.659Z,43.98
2019-04-20T00:01:58.197Z,44.55
2019-04-20T00:02:55.514Z,44.62
2019-04-20T00:03:53.655Z,44.05
2019-04-20T00:04:53.387Z,44.00
2019-04-20T00:05:53.281Z,43.71
2019-04-20T00:06:54.786Z,44.38
2019-04-20T00:07:54.087Z,44.21
2019-04-20T00:09:00.781Z,44.78
2019-04-20T00:09:59.004Z,44.59
2019-04-20T00:11:01.755Z,44.73
2019-04-20T00:12:01.547Z,45.06
2019-04-20T00:13:05.664Z,45.09
2019-04-20T00:14:02.026Z,45.12
2019-04-20T00:14:52.730Z,45.16
2019-04-20T00:15:53.672Z,45.34
2019-04-20T00:16:52.854Z,45.44
2019-04-20T00:17:57.139Z,45.36
2019-04-20T00:18:57.399Z,45.45
2019-04-20T00:19:56.094Z,45.43
2019-04-20T00:21:00.392Z,45.23
2019-04-20T00:21:59.863Z,45.47
2019-04-20T00:22:54.128Z,45.69
2019-04-20T00:23:53.563Z,45.79
2019-04-20T00:25:00.452Z,45.92
2019-04-20T00:26:04.468Z,45.90
2019-04-20T00:27:13.595Z,46.10
2019-04-20T00:28:12.991Z,46.30
2019-04-20T00:29:10.325Z,46.35
2019-04-20T00:30:04.279Z,46.25
2019-04-20T00:32:02.590Z,46.07
2019-04-20T00:33:01.768Z,46.41
2019-04-20T00:34:05.902Z,46.20
2019-04-20T00:34:53.990Z,46.32
2019-04-20T00:35:53.184Z,46.06
2019-04-20T00:36:54.032Z,46.13
2019-04-20T00:37:53.016Z,46.26
2019-04-20T00:38:56.537Z,46.28
2019-04-20T00:39:53.134Z,46.30
2019-04-20T00:40:59.329Z,46.24
2019-04-20T00:41:58.963Z,46.33
2019-04-20T00:42:55.661Z,46.38
2019-04-20T00:43:53.424Z,46.24
2019-04-20T00:45:01.779Z,46.49
2019-04-20T00:46:01.969Z,46.22
2019-04-20T00:47:04.487Z,46.31
2019-04-20T00:48:00.736Z,46.78
2019-04-20T00:49:00.834Z,46.51
2019-04-20T00:50:05.578Z,46.26
2019-04-20T00:51:09.544Z,46.48
2019-04-20T00:52:18.884Z,46.46
2019-04-20T00:53:07.703Z,46.67
2019-04-20T00:53:56.853Z,46.90
2019-04-20T00:54:53.925Z,46.37
2019-04-20T00:55:53.140Z,46.75
2019-04-20T00:57:06.274Z,46.69
2019-04-20T00:57:59.782Z,46.88
2019-04-20T00:59:09.183Z,46.54
2019-04-20T01:00:11.072Z,46.78
2019-04-20T01:01:12.818Z,46.71
2019-04-20T01:02:15.667Z,46.69
2019-04-20T01:03:09.624Z,46.67
2019-04-20T01:04:16.343Z,46.32
2019-04-20T01:05:04.587Z,46.58
2019-04-20T01:07:06.307Z,46.69
2019-04-20T01:07:57.017Z,46.48
2019-04-20T01:08:53.416Z,46.59
2019-04-20T01:09:54.195Z,46.41
2019-04-20T01:10:56.054Z,46.56
2019-04-20T01:11:54.463Z,46.13
2019-04-20T01:13:01.131Z,46.06
2019-04-20T01:13:58.477Z,46.09
2019-04-20T01:14:57.397Z,46.25
2019-04-20T01:15:58.808Z,45.72
2019-04-20T01:17:00.029Z,45.56
2019-04-20T01:17:53.391Z,45.55
2019-04-20T01:18:53.291Z,45.32
2019-04-20T01:19:54.084Z,45.59
2019-04-20T01:20:53.620Z,45.48
2019-04-20T01:22:00.045Z,45.54
2019-04-20T01:23:00.112Z,45.23
2019-04-20T01:23:58.373Z,44.12
2019-04-20T01:24:54.903Z,44.59
2019-04-20T01:25:58.288Z,44.54
2019-04-20T01:26:55.983Z,44.50
2019-04-20T01:28:08.113Z,44.57
2019-04-20T01:29:06.268Z,44.38
2019-04-20T01:30:03.385Z,44.54
2019-04-20T01:31:08.335Z,43.57
2019-04-20T01:32:06.142Z,43.56
2019-04-20T01:33:11.519Z,43.80
2019-04-20T01:34:03.063Z,44.34
2019-04-20T01:35:04.765Z,44.61
2019-04-20T01:36:08.759Z,44.68
2019-04-20T01:37:09.532Z,44.80
2019-04-20T01:38:06.890Z,45.19
2019-04-20T01:39:05.005Z,45.31
2019-04-20T01:39:57.647Z,45.70
2019-04-20T01:40:53.233Z,45.91
2019-04-20T01:41:54.032Z,46.13
2019-04-20T01:42:53.281Z,46.17
2019-04-20T01:43:52.812Z,46.83
2019-04-20T01:44:55.326Z,46.57
2019-04-20T01:46:00.206Z,47.08
2019-04-20T01:46:57.925Z,47.23
2019-04-20T01:47:54.449Z,47.09
2019-04-20T01:48:54.737Z,47.94
2019-04-20T01:49:57.478Z,48.02
2019-04-20T01:51:02.141Z,48.05
2019-04-20T01:52:03.974Z,48.86
2019-04-20T01:53:03.450Z,48.94
2019-04-20T01:54:06.723Z,48.78
2019-04-20T01:55:13.079Z,49.35
2019-04-20T01:56:08.722Z,49.22
2019-04-20T01:57:01.677Z,49.76
2019-04-20T01:58:11.634Z,49.61
2019-04-20T01:59:10.697Z,49.74
2019-04-20T02:00:00.575Z,50.47
2019-04-20T02:00:55.862Z,50.64
2019-04-20T02:01:59.426Z,50.67
2019-04-20T02:02:57.058Z,51.18
2019-04-20T02:03:56.781Z,51.03
2019-04-20T02:04:55.399Z,51.46
2019-04-20T02:05:55.660Z,51.30
2019-04-20T02:06:57.878Z,51.09
2019-04-20T02:07:55.203Z,51.01
2019-04-20T02:08:57.321Z,50.56
2019-04-20T02:09:58.364Z,50.58
2019-04-20T02:10:59.226Z,50.46
2019-04-20T02:11:54.106Z,51.18
2019-04-20T02:12:57.696Z,51.23
2019-04-20T02:13:56.570Z,51.68
2019-04-20T02:14:57.591Z,50.96
2019-04-20T02:15:56.388Z,51.36
2019-04-20T02:17:03.197Z,51.83
2019-04-20T02:18:08.878Z,51.11
2019-04-20T02:19:09.333Z,51.54
2019-04-20T02:20:10.729Z,51.48
2019-04-20T02:21:05.229Z,51.18
2019-04-20T02:22:08.846Z,51.54
2019-04-20T02:23:07.404Z,51.33
2019-04-20T02:23:59.335Z,51.60
2019-04-20T02:24:53.526Z,52.03
2019-04-20T02:25:54.189Z,51.30
2019-04-20T02:26:53.627Z,51.71
2019-04-20T02:27:57.818Z,52.11
2019-04-20T02:29:19.059Z,51.73
2019-04-20T02:30:21.974Z,52.28
2019-04-20T02:33:34.424Z,52.02
2019-04-20T02:35:07.220Z,52.10
2019-04-20T02:36:29.929Z,52.17
2019-04-20T02:37:13.617Z,52.92
2019-04-20T02:38:42.607Z,52.11
2019-04-20T02:39:39.372Z,52.35
2019-04-20T02:40:27.058Z,52.37
2019-04-20T02:41:28.330Z,52.34
2019-04-20T02:43:25.101Z,52.11
2019-04-20T02:45:33.011Z,51.23
2019-04-20T02:46:28.553Z,51.46
2019-04-20T02:48:21.767Z,52.22
2019-04-20T02:51:13.347Z,51.83
2019-04-20T02:52:32.690Z,52.36
2019-04-20T02:53:33.017Z,51.98
2019-04-20T02:55:24.829Z,52.10
2019-04-20T02:56:12.923Z,52.58
2019-04-20T02:58:25.460Z,52.13
2019-04-20T03:00:20.955Z,52.78
2019-04-20T03:01:16.006Z,52.46
2019-04-20T03:02:04.135Z,52.56
2019-04-20T03:03:03.248Z,52.82
2019-04-20T03:03:58.282Z,52.21
2019-04-20T03:05:08.879Z,52.10
2019-04-20T03:06:08.573Z,52.43
2019-04-20T03:07:09.349Z,51.75
2019-04-20T03:08:10.031Z,53.56
2019-04-20T03:09:17.434Z,53.99
2019-04-20T03:10:15.591Z,53.24
2019-04-20T03:11:21.158Z,53.03
2019-04-20T03:12:18.596Z,52.46
2019-04-20T03:13:15.900Z,52.85
2019-04-20T03:14:10.887Z,52.43
2019-04-20T03:15:09.571Z,53.17
2019-04-20T03:16:15.446Z,52.59
2019-04-20T03:17:15.209Z,53.31
2019-04-20T03:18:18.079Z,52.76
2019-04-20T03:19:07.650Z,53.21
2019-04-20T03:20:12.024Z,53.59
2019-04-20T03:21:12.862Z,52.74
2019-04-20T03:22:16.129Z,52.92
2019-04-20T03:24:22.008Z,53.84
2019-04-20T03:25:11.377Z,53.62
2019-04-20T03:26:05.403Z,53.58
2019-04-20T03:27:07.961Z,53.46
2019-04-20T03:28:15.489Z,52.93
2019-04-20T03:29:05.333Z,52.93
2019-04-20T03:30:40.597Z,54.07
2019-04-20T03:31:41.202Z,53.65
2019-04-20T03:32:40.384Z,52.74
2019-04-20T03:33:23.493Z,52.67
2019-04-20T03:36:12.503Z,52.77
2019-04-20T03:37:19.441Z,53.64
2019-04-20T03:38:14.249Z,53.86
2019-04-20T03:39:16.538Z,53.52
2019-04-20T03:40:07.108Z,53.06
2019-04-20T03:41:04.879Z,53.54
2019-04-20T03:41:56.670Z,52.58
2019-04-20T03:42:53.349Z,53.61
2019-04-20T03:44:00.300Z,53.69
2019-04-20T03:44:58.671Z,54.17
2019-04-20T03:45:59.564Z,53.94
2019-04-20T03:46:59.722Z,53.61
2019-04-20T03:48:03.135Z,53.82
2019-04-20T03:49:11.818Z,53.49
2019-04-20T03:50:07.644Z,54.07
2019-04-20T03:51:18.085Z,54.24
2019-04-20T03:52:09.603Z,54.49
2019-04-20T03:53:17.225Z,53.81
2019-04-20T03:54:08.504Z,54.10
2019-04-20T03:55:13.922Z,53.99
2019-04-20T03:56:10.024Z,54.65
2019-04-20T03:57:17.292Z,54.27
2019-04-20T03:58:10.754Z,54.52
2019-04-20T03:59:10.384Z,54.26
2019-04-20T04:00:04.712Z,54.59
2019-04-20T04:01:12.559Z,53.96
2019-04-20T04:02:14.625Z,54.00
2019-04-20T04:03:20.009Z,53.49
2019-04-20T04:04:18.686Z,53.67
2019-04-20T04:05:05.549Z,53.95
2019-04-20T04:06:05.423Z,53.14
2019-04-20T04:06:58.057Z,53.42
2019-04-20T04:08:07.506Z,53.97
2019-04-20T04:09:07.271Z,53.52
2019-04-20T04:10:04.598Z,53.49
2019-04-20T04:11:09.776Z,53.96
2019-04-20T04:12:06.629Z,53.81
2019-04-20T04:12:53.159Z,54.07
2019-04-20T04:13:54.278Z,53.97
2019-04-20T04:14:53.695Z,54.13
2019-04-20T04:16:02.617Z,54.36
2019-04-20T04:16:57.252Z,54.77
2019-04-20T04:17:59.897Z,54.25
2019-04-20T04:19:02.848Z,54.50
2019-04-20T04:20:00.788Z,54.55
2019-04-20T04:21:01.490Z,54.20
2019-04-20T04:23:10.407Z,54.92
2019-04-20T04:24:05.840Z,54.77
2019-04-20T04:25:09.253Z,54.51
2019-04-20T04:26:11.572Z,54.66
2019-04-20T04:27:05.674Z,54.18
2019-04-20T04:28:07.030Z,54.42
2019-04-20T04:29:12.657Z,54.66
2019-04-20T04:30:12.233Z,54.13
2019-04-20T04:31:09.521Z,54.83
2019-04-20T04:34:07.627Z,54.50
2019-04-20T04:36:10.063Z,55.04
2019-04-20T04:37:13.470Z,54.75
2019-04-20T04:38:09.536Z,54.75
2019-04-20T04:39:15.059Z,54.02
2019-04-20T04:40:20.547Z,54.43
2019-04-20T04:41:18.274Z,54.45
2019-04-20T04:43:17.089Z,54.49
2019-04-20T04:44:09.655Z,54.32
2019-04-20T04:45:00.806Z,54.27
2019-04-20T04:45:53.405Z,53.91
2019-04-20T04:46:56.691Z,54.19
2019-04-20T04:47:53.701Z,53.62
2019-04-20T04:48:58.334Z,54.13
2019-04-20T04:49:59.957Z,53.80
2019-04-20T04:51:00.809Z,53.88
2019-04-20T04:52:02.256Z,54.13
2019-04-20T04:53:02.793Z,53.77
2019-04-20T04:54:02.956Z,54.15
2019-04-20T04:55:04.639Z,53.64
2019-04-20T04:56:01.563Z,53.44
2019-04-20T04:56:52.941Z,53.74
2019-04-20T04:57:53.826Z,53.58
2019-04-20T04:58:53.838Z,53.53
2019-04-20T04:59:53.506Z,53.70
2019-04-20T05:01:01.353Z,53.71
2019-04-20T05:01:55.439Z,53.55
2019-04-20T05:02:58.539Z,53.56
2019-04-20T05:05:19.362Z,53.70
2019-04-20T05:06:13.361Z,53.71
2019-04-20T05:07:07.711Z,52.82
2019-04-20T05:08:04.542Z,53.42
2019-04-20T05:08:59.979Z,54.08
2019-04-20T05:09:53.340Z,53.79
2019-04-20T05:10:54.182Z,53.40
2019-04-20T05:12:01.979Z,52.91
2019-04-20T05:12:54.777Z,52.05
2019-04-20T05:14:03.200Z,52.99
2019-04-20T05:15:03.611Z,52.11
2019-04-20T05:16:10.979Z,52.24
2019-04-20T05:17:07.723Z,51.63
2019-04-20T05:18:07.164Z,51.33
2019-04-20T05:19:10.512Z,51.47
2019-04-20T05:20:13.432Z,51.88
2019-04-20T05:21:15.431Z,51.67
2019-04-20T05:22:15.937Z,51.55
2019-04-20T05:23:11.464Z,51.62
2019-04-20T05:24:09.965Z,51.18
2019-04-20T05:25:12.003Z,51.11
2019-04-20T05:26:16.907Z,50.68
2019-04-20T05:27:09.444Z,51.36
2019-04-20T05:28:06.942Z,50.98
2019-04-20T05:29:03.422Z,51.08
2019-04-20T05:29:53.464Z,51.12
2019-04-20T05:30:58.178Z,50.77
2019-04-20T05:32:01.091Z,50.32
2019-04-20T05:33:01.479Z,50.65
2019-04-20T05:34:11.734Z,50.45
2019-04-20T05:35:19.703Z,50.08
2019-04-20T05:36:14.708Z,50.26
2019-04-20T05:37:20.876Z,50.35
2019-04-20T05:39:22.425Z,50.03
2019-04-20T05:40:16.292Z,49.62
2019-04-20T05:41:12.814Z,50.16
2019-04-20T05:42:13.319Z,50.31
2019-04-20T05:43:12.755Z,49.49
2019-04-20T05:44:10.160Z,50.01
2019-04-20T05:45:11.610Z,48.80
2019-04-20T05:46:18.480Z,49.95
2019-04-20T05:48:12.519Z,49.69
2019-04-20T05:49:17.662Z,49.19
2019-04-20T05:50:01.270Z,49.42
2019-04-20T05:51:21.064Z,49.16
2019-04-20T05:52:24.030Z,49.05
2019-04-20T05:53:14.436Z,49.14
2019-04-20T05:54:15.568Z,49.67
2019-04-20T05:55:16.213Z,49.23
2019-04-20T05:56:02.639Z,49.34
2019-04-20T05:57:23.691Z,48.67
2019-04-20T05:58:17.950Z,48.22
2019-04-20T05:59:11.565Z,47.70
2019-04-20T06:00:13.944Z,47.92
2019-04-20T06:01:13.524Z,47.37
2019-04-20T06:02:09.670Z,46.71
2019-04-20T06:03:12.991Z,46.36
2019-04-20T06:04:10.100Z,46.97
2019-04-20T06:05:17.482Z,46.17
2019-04-20T06:06:14.721Z,46.29
2019-04-20T06:07:14.972Z,46.27
2019-04-20T06:08:20.446Z,45.72
2019-04-20T06:10:11.458Z,44.83
2019-04-20T06:11:13.354Z,44.98
2019-04-20T06:12:15.995Z,45.00
2019-04-20T06:13:14.085Z,44.43
2019-04-20T06:14:02.396Z,43.76
2019-04-20T06:15:09.428Z,44.16
2019-04-20T06:16:07.804Z,44.00
2019-04-20T06:17:11.167Z,44.56
2019-04-20T06:18:06.288Z,44.14
2019-04-20T06:19:20.159Z,44.20
2019-04-20T06:20:11.547Z,43.50
2019-04-20T06:21:22.497Z,43.94
2019-04-20T06:22:21.680Z,43.54
2019-04-20T06:23:18.858Z,43.91
2019-04-20T06:24:20.416Z,43.58
2019-04-20T06:25:33.511Z,43.78
2019-04-20T06:26:30.113Z,44.02
2019-04-20T06:28:14.869Z,43.28
2019-04-20T06:29:10.153Z,42.99
2019-04-20T06:30:10.914Z,42.63
2019-04-20T06:31:18.024Z,42.62
2019-04-20T06:32:11.016Z,42.73
2019-04-20T06:33:24.625Z,42.62
2019-04-20T06:34:27.997Z,42.29
2019-04-20T06:35:18.939Z,41.56
2019-04-20T06:36:21.852Z,41.70
2019-04-20T06:37:07.143Z,41.58
2019-04-20T06:39:13.362Z,40.74
2019-04-20T06:40:25.354Z,39.75
2019-04-20T06:41:21.583Z,40.83
2019-04-20T06:42:14.705Z,41.43
2019-04-20T06:43:07.847Z,40.62
2019-04-20T06:44:08.632Z,41.04
2019-04-20T06:45:25.003Z,40.63
2019-04-20T06:46:15.214Z,41.33
2019-04-20T06:47:21.266Z,41.22
2019-04-20T06:48:26.858Z,41.07
2019-04-20T06:49:22.438Z,40.14
2019-04-20T06:50:15.949Z,39.71
2019-04-20T06:51:10.806Z,39.97
2019-04-20T06:52:20.313Z,39.23
2019-04-20T06:53:20.929Z,39.08
2019-04-20T06:54:07.290Z,39.45
2019-04-20T06:55:08.769Z,39.75
2019-04-20T06:56:21.686Z,39.94
2019-04-20T06:58:31.870Z,39.88
2019-04-20T06:59:12.237Z,39.76
2019-04-20T07:00:15.705Z,39.58
2019-04-20T07:01:08.095Z,39.91
2019-04-20T07:03:17.780Z,39.18
2019-04-20T07:04:33.716Z,38.32
2019-04-20T07:05:17.437Z,37.99
2019-04-20T07:06:29.322Z,36.59
2019-04-20T07:08:29.135Z,38.35
2019-04-20T07:09:20.258Z,37.71
2019-04-20T07:10:18.297Z,36.96
2019-04-20T07:11:18.728Z,37.49
2019-04-20T07:12:06.440Z,37.09
2019-04-20T07:13:09.176Z,36.51
2019-04-20T07:14:00.969Z,35.51
2019-04-20T07:15:14.933Z,36.44
2019-04-20T07:16:18.492Z,37.73
2019-04-20T07:17:20.637Z,37.28
2019-04-20T07:18:09.200Z,37.37
2019-04-20T07:19:15.395Z,36.64
2019-04-20T07:20:04.207Z,36.97
2019-04-20T07:21:09.542Z,36.74
2019-04-20T07:22:25.103Z,37.12
2019-04-20T07:23:22.374Z,35.83
2019-04-20T07:24:20.058Z,35.46
2019-04-20T07:25:12.790Z,35.54
2019-04-20T07:27:13.652Z,35.47
2019-04-20T07:28:14.464Z,36.52
2019-04-20T07:29:11.813Z,35.58
2019-04-20T07:30:13.702Z,36.59
2019-04-20T07:31:07.662Z,35.24
2019-04-20T07:32:01.867Z,35.25
2019-04-20T07:33:20.028Z,35.67
2019-04-20T07:34:10.365Z,35.99
2019-04-20T07:35:08.749Z,35.64
2019-04-20T07:36:20.045Z,35.91
2019-04-20T07:37:35.145Z,36.14
2019-04-20T07:38:30.905Z,35.73
2019-04-20T07:39:07.888Z,36.96
2019-04-20T07:40:17.548Z,35.06
2019-04-20T07:41:23.627Z,36.04
2019-04-20T07:42:16.981Z,34.26
2019-04-20T07:43:08.157Z,33.36
2019-04-20T07:44:21.527Z,33.81
2019-04-20T07:46:23.135Z,33.18
2019-04-20T07:48:15.418Z,34.67
2019-04-20T07:49:15.976Z,34.26
2019-04-20T07:50:07.734Z,34.38
2019-04-20T07:51:04.835Z,34.36
2019-04-20T07:51:53.906Z,33.75
2019-04-20T07:53:10.877Z,33.54
2019-04-20T07:54:24.751Z,34.57
2019-04-20T07:56:12.487Z,34.40
2019-04-20T07:57:10.275Z,34.49
2019-04-20T07:58:08.291Z,33.98
2019-04-20T07:58:58.695Z,35.16
2019-04-20T08:00:17.549Z,35.32
2019-04-20T08:01:07.600Z,34.53
2019-04-20T08:02:30.763Z,33.57
2019-04-20T08:03:18.439Z,34.06
2019-04-20T08:04:15.723Z,32.83
2019-04-20T08:05:08.271Z,33.08
2019-04-20T08:06:06.914Z,33.68
2019-04-20T08:06:59.105Z,33.57
2019-04-20T08:08:10.503Z,32.78
2019-04-20T08:09:08.675Z,33.21
2019-04-20T08:10:00.396Z,33.17
2019-04-20T08:11:12.382Z,33.42
2019-04-20T08:12:14.241Z,33.63
2019-04-20T08:13:21.552Z,33.46
2019-04-20T08:14:19.295Z,34.63
2019-04-20T08:15:27.413Z,33.11
2019-04-20T08:16:14.582Z,33.00
2019-04-20T08:17:21.340Z,32.43
2019-04-20T08:18:08.915Z,31.89
2019-04-20T08:19:10.123Z,32.18
2019-04-20T08:20:10.793Z,32.51
2019-04-20T08:22:21.665Z,32.34
2019-04-20T08:23:12.889Z,32.20
2019-04-20T08:24:13.148Z,32.79
2019-04-20T08:25:12.543Z,32.88
2019-04-20T08:26:01.744Z,32.01
2019-04-20T08:26:59.993Z,31.66
2019-04-20T08:27:55.033Z,31.83
2019-04-20T08:29:00.196Z,32.31
2019-04-20T08:30:12.434Z,31.55
2019-04-20T08:31:13.128Z,30.40
2019-04-20T08:32:13.041Z,30.98
2019-04-20T08:33:09.440Z,31.21
2019-04-20T08:34:18.598Z,30.70
2019-04-20T08:35:05.572Z,31.04
2019-04-20T08:36:17.155Z,31.17
2019-04-20T08:37:08.443Z,32.13
2019-04-20T08:38:48.470Z,31.12
2019-04-20T08:40:13.265Z,30.59
2019-04-20T08:41:08.513Z,30.71
2019-04-20T08:42:05.954Z,31.29
2019-04-20T08:43:15.739Z,31.29
2019-04-20T08:44:39.693Z,30.97
2019-04-20T08:45:16.767Z,31.09
2019-04-20T08:47:21.670Z,30.44
2019-04-20T08:48:18.988Z,31.21
2019-04-20T08:49:22.003Z,31.01
2019-04-20T08:50:13.719Z,31.22
2019-04-20T08:51:07.311Z,30.25
2019-04-20T08:52:38.174Z,30.73
2019-04-20T08:53:20.253Z,31.02
2019-04-20T08:54:08.407Z,31.11
2019-04-20T08:55:13.119Z,31.58
2019-04-20T08:56:06.993Z,30.89
2019-04-20T08:56:58.058Z,29.98
2019-04-20T08:57:54.378Z,30.46
2019-04-20T08:58:54.980Z,30.12
2019-04-20T08:59:54.350Z,30.30
2019-04-20T09:00:58.766Z,29.78
2019-04-20T09:01:53.837Z,30.13
2019-04-20T09:02:58.634Z,31.10
2019-04-20T09:04:02.084Z,30.56
2019-04-20T09:05:01.023Z,30.92
2019-04-20T09:06:01.016Z,30.74
2019-04-20T09:07:05.543Z,30.61
2019-04-20T09:08:02.557Z,31.46
2019-04-20T09:09:17.338Z,31.03
2019-04-20T09:10:16.522Z,31.10
2019-04-20T09:11:09.924Z,30.34
2019-04-20T09:12:05.849Z,28.29
2019-04-20T09:13:06.035Z,28.00
2019-04-20T09:13:58.449Z,28.18
2019-04-20T09:14:53.521Z,29.47
2019-04-20T09:15:53.607Z,28.06
2019-04-20T09:16:59.817Z,27.45
2019-04-20T09:17:59.106Z,27.96
2019-04-20T09:18:59.895Z,28.72
2019-04-20T09:20:01.779Z,27.83
2019-04-20T09:21:01.531Z,27.13
2019-04-20T09:22:01.687Z,26.62
2019-04-20T09:23:13.512Z,26.88
2019-04-20T09:24:15.931Z,27.11
2019-04-20T09:25:19.354Z,26.67
2019-04-20T09:26:12.832Z,27.00
2019-04-20T09:28:07.199Z,26.14
2019-04-20T09:29:02.976Z,26.23
2019-04-20T09:30:08.916Z,25.55
2019-04-20T09:31:12.248Z,24.49
2019-04-20T09:32:11.163Z,24.77
2019-04-20T09:33:18.230Z,25.10
2019-04-20T09:34:11.460Z,25.01
2019-04-20T09:35:13.749Z,24.27
2019-04-20T09:36:09.467Z,25.64
2019-04-20T09:38:10.392Z,26.29
2019-04-20T09:39:04.622Z,25.71
2019-04-20T09:40:16.042Z,26.41
2019-04-20T09:41:09.154Z,26.31
2019-04-20T09:42:00.861Z,25.95
2019-04-20T09:42:54.243Z,26.48
2019-04-20T09:43:54.085Z,26.26
2019-04-20T09:44:57.546Z,25.20
2019-04-20T09:45:57.997Z,24.50
2019-04-20T09:46:56.933Z,24.63
2019-04-20T09:47:56.334Z,25.22
2019-04-20T09:48:57.390Z,25.50
2019-04-20T09:50:03.424Z,25.24
2019-04-20T09:51:12.866Z,24.86
2019-04-20T09:52:06.780Z,24.69
2019-04-20T09:53:08.766Z,24.05
2019-04-20T09:54:03.947Z,24.26
2019-04-20T09:55:06.851Z,24.21
2019-04-20T09:56:10.924Z,23.67
2019-04-20T09:57:11.824Z,22.65
2019-04-20T09:58:07.251Z,22.85
2019-04-20T09:59:12.405Z,23.39
2019-04-20T10:00:12.065Z,23.62
2019-04-20T10:01:08.406Z,23.19
2019-04-20T10:02:02.184Z,23.93
2019-04-20T10:02:54.681Z,23.55
2019-04-20T10:03:54.769Z,22.92
2019-04-20T10:04:53.792Z,22.20
2019-04-20T10:05:53.847Z,23.03
2019-04-20T10:06:55.126Z,22.98
2019-04-20T10:07:56.963Z,22.33
2019-04-20T10:08:56.799Z,22.52
2019-04-20T10:09:53.848Z,21.20
2019-04-20T10:10:54.318Z,21.86
2019-04-20T10:11:55.282Z,21.87
2019-04-20T10:12:54.207Z,22.05
2019-04-20T10:13:54.375Z,22.61
2019-04-20T10:14:57.636Z,22.00
2019-04-20T10:15:53.887Z,22.24
2019-04-20T10:16:53.849Z,22.50
2019-04-20T10:17:54.190Z,21.71
2019-04-20T10:18:54.955Z,21.85
2019-04-20T10:19:55.582Z,22.82
2019-04-20T10:20:53.834Z,22.22
2019-04-20T10:21:54.847Z,22.34
2019-04-20T10:22:54.388Z,21.62
2019-04-20T10:23:54.584Z,21.67
2019-04-20T10:24:55.464Z,22.23
2019-04-20T10:25:54.338Z,21.61
2019-04-20T10:26:54.583Z,20.56
2019-04-20T10:27:54.159Z,21.20
2019-04-20T10:28:53.746Z,20.98
2019-04-20T10:29:53.727Z,21.19
2019-04-20T10:30:54.629Z,21.64
2019-04-20T10:31:57.192Z,20.84
2019-04-20T10:32:55.413Z,20.23
2019-04-20T10:33:53.999Z,20.03
2019-04-20T10:34:54.859Z,20.62
2019-04-20T10:35:53.912Z,20.39
2019-04-20T10:36:53.807Z,21.12
2019-04-20T10:37:53.922Z,21.03
2019-04-20T10:38:54.771Z,20.98
2019-04-20T10:39:54.419Z,20.71
2019-04-20T10:40:57.267Z,21.11
2019-04-20T10:41:58.708Z,20.73
2019-04-20T10:42:55.104Z,21.06
2019-04-20T10:43:53.847Z,20.79
2019-04-20T10:44:56.750Z,21.38
2019-04-20T10:45:55.046Z,22.21
2019-04-20T10:46:53.778Z,21.55
2019-04-20T10:47:55.014Z,21.68
2019-04-20T10:48:56.110Z,21.64
2019-04-20T10:49:53.291Z,20.81
2019-04-20T10:50:54.818Z,20.11
2019-04-20T10:51:53.605Z,21.54
2019-04-20T10:52:54.099Z,22.22
2019-04-20T10:53:54.237Z,21.33
2019-04-20T10:54:54.380Z,21.61
2019-04-20T10:55:53.854Z,22.29
2019-04-20T10:56:55.314Z,21.17
2019-04-20T10:57:53.422Z,21.51
2019-04-20T10:58:53.969Z,20.90
2019-04-20T10:59:55.271Z,21.10
2019-04-20T11:00:53.547Z,21.54
2019-04-20T11:01:53.916Z,21.87
2019-04-20T11:02:55.401Z,21.86
2019-04-20T11:03:54.494Z,21.20
2019-04-20T11:04:54.825Z,20.55
2019-04-20T11:05:53.918Z,21.35
2019-04-20T11:06:54.550Z,22.32
2019-04-20T11:07:54.663Z,22.60
2019-04-20T11:08:54.048Z,20.58
2019-04-20T11:10:04.426Z,21.35
2019-04-20T11:11:04.033Z,20.66
2019-04-20T11:11:54.725Z,21.94
2019-04-20T11:12:53.971Z,20.82
2019-04-20T11:14:00.799Z,20.96
2019-04-20T11:14:54.465Z,20.50
2019-04-20T11:15:54.688Z,20.89
2019-04-20T11:16:54.244Z,21.11
2019-04-20T11:17:53.825Z,21.63
2019-04-20T11:18:55.479Z,21.97
2019-04-20T11:19:54.920Z,22.06
2019-04-20T11:20:55.206Z,20.97
2019-04-20T11:21:54.414Z,21.44
2019-04-20T11:22:53.213Z,20.73
2019-04-20T11:23:54.233Z,21.20
2019-04-20T11:24:54.306Z,20.36
2019-04-20T11:25:53.862Z,20.48
2019-04-20T11:26:54.097Z,20.84
2019-04-20T11:27:54.389Z,20.29
2019-04-20T11:28:53.774Z,20.72
2019-04-20T11:29:54.107Z,20.47
2019-04-20T11:30:54.246Z,20.88
2019-04-20T11:31:55.674Z,20.68
2019-04-20T11:32:54.036Z,20.88
2019-04-20T11:33:54.426Z,21.36
2019-04-20T11:34:56.347Z,20.87
2019-04-20T11:35:54.976Z,20.79
2019-04-20T11:36:55.061Z,21.19
2019-04-20T11:37:55.343Z,20.66
2019-04-20T11:38:54.416Z,21.46
2019-04-20T11:39:54.835Z,22.29
2019-04-20T11:41:04.115Z,21.39
2019-04-20T11:41:54.033Z,21.69
2019-04-20T11:42:55.296Z,20.88
2019-04-20T11:43:54.099Z,22.35
2019-04-20T11:44:54.922Z,21.91
2019-04-20T11:45:54.503Z,22.24
2019-04-20T11:46:54.537Z,21.58
2019-04-20T11:47:53.706Z,22.19
2019-04-20T11:48:55.309Z,21.50
2019-04-20T11:49:55.440Z,21.35
2019-04-20T11:50:53.937Z,21.69
2019-04-20T11:51:55.224Z,21.25
2019-04-20T11:52:55.282Z,21.83
2019-04-20T11:53:54.397Z,21.81
2019-04-20T11:54:54.657Z,21.57
2019-04-20T11:55:54.365Z,21.66
2019-04-20T11:56:55.356Z,21.62
2019-04-20T11:57:54.219Z,21.19
2019-04-20T11:58:53.998Z,21.85
2019-04-20T11:59:55.008Z,21.44
2019-04-20T12:01:02.964Z,21.89
2019-04-20T12:01:57.485Z,21.43
2019-04-20T12:02:56.901Z,22.19
2019-04-20T12:04:01.253Z,20.59
2019-04-20T12:05:08.864Z,21.02
2019-04-20T12:05:57.818Z,20.57
2019-04-20T12:06:54.934Z,20.26
2019-04-20T12:07:55.287Z,21.14
2019-04-20T12:08:54.922Z,20.07
2019-04-20T12:09:58.485Z,20.51
2019-04-20T12:10:57.941Z,20.79
2019-04-20T12:12:04.117Z,20.58
2019-04-20T12:12:55.515Z,21.53
2019-04-20T12:13:54.525Z,20.71
2019-04-20T12:14:54.809Z,20.87
2019-04-20T12:15:54.021Z,21.53
2019-04-20T12:16:55.408Z,20.77
2019-04-20T12:17:54.032Z,20.96
2019-04-20T12:18:54.664Z,21.10
2019-04-20T12:19:54.046Z,20.32
2019-04-20T12:20:54.839Z,20.46
2019-04-20T12:21:54.042Z,20.00
2019-04-20T12:22:54.610Z,19.14
2019-04-20T12:23:54.131Z,19.38
2019-04-20T12:24:54.168Z,20.11
2019-04-20T12:25:54.430Z,19.88
2019-04-20T12:26:54.605Z,19.63
2019-04-20T12:27:58.338Z,19.26
2019-04-20T12:28:54.011Z,19.79
2019-04-20T12:29:54.086Z,20.27
2019-04-20T12:30:56.007Z,20.41
2019-04-20T12:31:58.163Z,20.46
2019-04-20T12:32:58.540Z,20.09
2019-04-20T12:33:54.774Z,19.15
2019-04-20T12:34:54.130Z,20.26
2019-04-20T12:35:54.192Z,20.26
2019-04-20T12:36:55.173Z,19.86
2019-04-20T12:37:54.691Z,20.22
2019-04-20T12:38:55.014Z,19.95
2019-04-20T12:39:55.237Z,19.81
2019-04-20T12:40:54.200Z,20.25
2019-04-20T12:41:58.181Z,20.54
2019-04-20T12:42:55.030Z,20.35
2019-04-20T12:43:54.124Z,20.61
2019-04-20T12:44:53.475Z,20.37
2019-04-20T12:45:54.030Z,20.54
2019-04-20T12:46:54.258Z,19.86
2019-04-20T12:47:55.470Z,19.58
2019-04-20T12:48:55.586Z,19.36
2019-04-20T12:49:54.162Z,18.89
2019-04-20T12:50:55.332Z,19.85
2019-04-20T12:51:59.252Z,18.85
2019-04-20T12:52:54.751Z,19.24
2019-04-20T12:53:54.090Z,19.11
2019-04-20T12:54:54.554Z,18.37
2019-04-20T12:55:54.774Z,19.23
2019-04-20T12:56:54.257Z,19.58
2019-04-20T12:57:54.533Z,19.48
2019-04-20T12:58:55.802Z,18.99
2019-04-20T12:59:54.232Z,19.48
2019-04-20T13:00:54.423Z,18.76
2019-04-20T13:01:53.740Z,18.79
2019-04-20T13:02:55.599Z,18.96
2019-04-20T13:03:53.717Z,19.80
2019-04-20T13:04:55.263Z,19.84
2019-04-20T13:05:54.383Z,19.08
2019-04-20T13:06:55.308Z,20.12
2019-04-20T13:07:57.868Z,20.07
2019-04-20T13:08:57.477Z,19.35
2019-04-20T13:09:54.792Z,19.92
2019-04-20T13:10:54.884Z,20.37
2019-04-20T13:11:59.470Z,20.36
2019-04-20T13:12:54.447Z,20.76
2019-04-20T13:13:54.527Z,19.46
2019-04-20T13:14:55.897Z,19.12
2019-04-20T13:15:54.413Z,19.52
2019-04-20T13:16:55.270Z,19.48
2019-04-20T13:17:54.375Z,19.87
2019-04-20T13:18:55.276Z,19.66
2019-04-20T13:19:55.320Z,20.07
2019-04-20T13:20:57.865Z,19.29
2019-04-20T13:21:54.796Z,18.59
2019-04-20T13:22:55.026Z,18.75
2019-04-20T13:23:55.349Z,18.92
2019-04-20T13:24:54.960Z,18.20
2019-04-20T13:25:54.933Z,19.08
2019-04-20T13:26:55.217Z,18.94
2019-04-20T13:27:54.760Z,19.14
2019-04-20T13:28:55.124Z,18.85
2019-04-20T13:29:54.688Z,19.28
2019-04-20T13:30:53.709Z,18.34
2019-04-20T13:31:56.260Z,18.49